Time;durP1;ratioP1;P1;durP2;ratioP2;P2;SDS_P1;SDS_P2;PMS_P1;PMS_P2;Temp;Humidity;BMP_temperature;BMP_pressure;BME280_temperature;BME280_humidity;BME280_pressure;Samples;Min_cycle;Max_cycle;Signal;HPM_P1;HPM_P2
2021/07/29 00:00:00;;;;;;;2.95;2.70;;;19.90;99.90;;;;;;5052086;28;20029;-72
2021/07/29 00:02:26;;;;;;;6.40;2.13;;;19.90;99.90;;;;;;5051732;28;20021;-73
2021/07/29 00:04:52;;;;;;;3.83;2.40;;;19.80;99.90;;;;;;5053637;28;20095;-72
2021/07/29 00:07:17;;;;;;;4.22;2.58;;;19.80;99.90;;;;;;5051619;28;20036;-73
2021/07/29 00:09:47;;;;;;;4.97;2.13;;;19.80;99.90;;;;;;5051575;28;20096;-72
2021/07/29 00:12:13;;;;;;;5.47;2.03;;;19.70;99.90;;;;;;5046455;28;20112;-73
2021/07/29 00:14:45;;;;;;;3.17;1.48;;;19.70;99.90;;;;;;5053207;28;20037;-72
2021/07/29 00:17:26;;;;;;;4.65;1.67;;;19.50;99.90;;;;;;5051156;28;20039;-72
2021/07/29 00:19:52;;;;;;;2.65;1.80;;;19.40;99.90;;;;;;5047008;28;20075;-72
2021/07/29 00:22:18;;;;;;;5.07;1.60;;;19.40;99.90;;;;;;5049704;28;20033;-72
2021/07/29 00:24:43;;;;;;;5.32;1.80;;;19.40;99.90;;;;;;5050264;28;20032;-71
2021/07/29 00:27:09;;;;;;;6.95;2.05;;;19.40;99.90;;;;;;5050432;28;20093;-73
2021/07/29 00:29:34;;;;;;;3.05;1.42;;;19.40;99.90;;;;;;5044904;28;20125;-72
2021/07/29 00:32:00;;;;;;;4.75;2.05;;;19.50;99.90;;;;;;5048484;28;20036;-73
2021/07/29 00:34:26;;;;;;;6.55;2.20;;;19.50;99.90;;;;;;5050554;28;20739;-71
2021/07/29 00:36:51;;;;;;;4.78;2.10;;;19.40;99.90;;;;;;5047465;28;20028;-72
2021/07/29 00:39:17;;;;;;;4.35;1.90;;;19.30;99.90;;;;;;5045862;28;20848;-71
2021/07/29 00:41:43;;;;;;;5.13;2.40;;;19.30;99.90;;;;;;5044244;28;20020;-72
2021/07/29 00:44:08;;;;;;;4.40;2.05;;;19.30;99.90;;;;;;5049519;28;20104;-72
2021/07/29 00:46:34;;;;;;;3.67;2.13;;;19.40;99.90;;;;;;5048911;28;20021;-71
2021/07/29 00:49:01;;;;;;;7.75;2.60;;;19.40;99.90;;;;;;5045409;28;20033;-71
2021/07/29 00:51:28;;;;;;;6.15;2.55;;;19.50;99.90;;;;;;5046979;28;20108;-72
2021/07/29 00:53:55;;;;;;;7.40;2.55;;;19.50;99.90;;;;;;5046608;28;20029;-71
2021/07/29 00:56:21;;;;;;;5.68;3.00;;;19.50;99.90;;;;;;5049225;28;20606;-73
2021/07/29 00:58:47;;;;;;;4.95;3.08;;;19.50;99.90;;;;;;5048549;28;20033;-72
2021/07/29 01:01:12;;;;;;;4.72;3.20;;;19.40;99.90;;;;;;5042340;28;20131;-68
2021/07/29 01:03:38;;;;;;;4.32;2.70;;;19.40;99.90;;;;;;5051251;28;20446;-72
2021/07/29 01:06:04;;;;;;;6.32;4.03;;;19.40;99.90;;;;;;5046621;28;20025;-70
2021/07/29 01:08:29;;;;;;;4.68;3.47;;;19.30;99.90;;;;;;5051373;28;20021;-71
2021/07/29 01:10:55;;;;;;;4.78;3.17;;;19.40;99.90;;;;;;5046646;28;20397;-70
2021/07/29 01:13:20;;;;;;;6.82;2.90;;;19.40;99.90;;;;;;5048329;28;20064;-72
2021/07/29 01:15:46;;;;;;;6.05;3.10;;;19.40;99.90;;;;;;5052002;28;20032;-72
2021/07/29 01:18:12;;;;;;;4.13;2.53;;;19.40;99.90;;;;;;5050102;28;20036;-72
2021/07/29 01:20:38;;;;;;;4.35;2.28;;;19.30;99.90;;;;;;5049593;28;20029;-72
2021/07/29 01:23:03;;;;;;;5.28;3.00;;;19.30;99.90;;;;;;5051381;28;20381;-71
2021/07/29 01:25:29;;;;;;;6.05;2.58;;;19.20;99.90;;;;;;5050428;28;20136;-70
2021/07/29 01:27:55;;;;;;;6.57;3.10;;;19.30;99.90;;;;;;5047631;28;20090;-70
2021/07/29 01:30:20;;;;;;;5.97;3.17;;;19.30;99.90;;;;;;5044509;28;20473;-71
2021/07/29 01:32:46;;;;;;;6.18;3.38;;;19.30;99.90;;;;;;5049480;28;20040;-69
2021/07/29 01:35:12;;;;;;;5.15;2.88;;;19.30;99.90;;;;;;5049749;28;20055;-71
2021/07/29 01:37:41;;;;;;;5.82;3.25;;;19.20;99.90;;;;;;5052863;28;20073;-69
2021/07/29 01:40:08;;;;;;;6.03;2.90;;;19.20;99.90;;;;;;5050424;28;20533;-69
2021/07/29 01:42:35;;;;;;;6.10;2.90;;;18.90;99.90;;;;;;5050251;28;20070;-72
2021/07/29 01:45:01;;;;;;;7.72;3.30;;;18.90;99.90;;;;;;5049074;28;20025;-71
2021/07/29 01:47:26;;;;;;;5.40;2.55;;;19.00;99.90;;;;;;5049952;28;20071;-70
2021/07/29 01:49:53;;;;;;;8.35;3.15;;;19.10;99.90;;;;;;5050675;28;20142;-72
2021/07/29 01:52:19;;;;;;;7.32;3.10;;;19.10;99.90;;;;;;5046633;28;20036;-70
2021/07/29 01:54:45;;;;;;;8.13;2.97;;;19.10;99.90;;;;;;5053412;28;20029;-72
2021/07/29 01:57:10;;;;;;;5.57;2.80;;;19.10;99.90;;;;;;5050161;28;20029;-71
2021/07/29 01:59:36;;;;;;;6.57;2.90;;;19.00;99.90;;;;;;5053509;28;20047;-72
2021/07/29 02:02:03;;;;;;;8.85;3.50;;;19.00;99.90;;;;;;5058838;28;20093;-72
2021/07/29 02:04:29;;;;;;;5.10;3.10;;;18.90;99.90;;;;;;5054964;28;20143;-73
2021/07/29 02:06:55;;;;;;;4.88;2.85;;;18.70;99.90;;;;;;5062128;28;20417;-71
2021/07/29 02:09:20;;;;;;;7.78;2.88;;;18.70;99.90;;;;;;5059569;28;20043;-73
2021/07/29 02:11:49;;;;;;;8.45;3.47;;;18.80;99.90;;;;;;5049032;28;20790;-71
2021/07/29 02:14:22;;;;;;;5.65;2.88;;;18.90;99.90;;;;;;5049325;28;20036;-71
2021/07/29 02:16:49;;;;;;;8.40;3.30;;;18.90;99.90;;;;;;5048971;28;20029;-70
2021/07/29 02:19:15;;;;;;;6.05;2.75;;;18.90;99.90;;;;;;5047648;28;20044;-71
2021/07/29 02:21:42;;;;;;;6.68;3.08;;;18.80;99.90;;;;;;5053922;28;20048;-71
2021/07/29 02:24:08;;;;;;;10.98;3.08;;;18.80;99.90;;;;;;5055691;28;20533;-71
2021/07/29 02:26:33;;;;;;;6.97;2.95;;;18.80;99.90;;;;;;5054443;28;20137;-70
2021/07/29 02:28:59;;;;;;;8.40;3.45;;;18.80;99.90;;;;;;5059835;28;20028;-70
2021/07/29 02:31:24;;;;;;;6.53;3.00;;;18.90;99.90;;;;;;5051973;28;20037;-70
2021/07/29 02:33:50;;;;;;;7.72;3.22;;;18.80;99.90;;;;;;5054653;28;20074;-70
2021/07/29 02:36:15;;;;;;;6.43;3.42;;;18.90;99.90;;;;;;5048735;28;20040;-70
2021/07/29 02:38:41;;;;;;;8.98;3.75;;;18.90;99.90;;;;;;5058988;28;20507;-70
2021/07/29 02:41:07;;;;;;;9.52;3.70;;;18.80;99.90;;;;;;5058377;28;20029;-70
2021/07/29 02:43:32;;;;;;;7.80;4.05;;;18.80;99.90;;;;;;5051033;28;20031;-70
2021/07/29 02:45:58;;;;;;;8.63;3.72;;;18.70;99.90;;;;;;5053568;28;20044;-70
2021/07/29 02:48:24;;;;;;;8.40;3.20;;;18.80;99.90;;;;;;5053249;28;20033;-72
2021/07/29 02:50:54;;;;;;;5.82;3.47;;;18.80;99.90;;;;;;5057153;28;20106;-71
2021/07/29 02:53:20;;;;;;;7.60;3.20;;;18.80;99.90;;;;;;5052206;28;20417;-72
2021/07/29 02:55:45;;;;;;;8.90;3.17;;;18.70;99.90;;;;;;5056207;28;20025;-72
2021/07/29 02:58:11;;;;;;;7.63;3.53;;;18.60;99.90;;;;;;5052591;28;20832;-71
2021/07/29 03:00:36;;;;;;;12.65;3.67;;;18.60;99.90;;;;;;5052907;28;20021;-71
2021/07/29 03:03:02;;;;;;;4.78;2.90;;;18.60;99.90;;;;;;5054779;28;20407;-68
2021/07/29 03:05:28;;;;;;;9.93;3.72;;;18.70;99.90;;;;;;5053847;28;20064;-70
2021/07/29 03:07:53;;;;;;;11.65;3.22;;;18.70;99.90;;;;;;5052718;28;20100;-71
2021/07/29 03:10:19;;;;;;;9.48;3.20;;;18.80;99.90;;;;;;5053598;28;20050;-71
2021/07/29 03:12:45;;;;;;;9.20;3.72;;;18.70;99.90;;;;;;5052569;28;20037;-72
2021/07/29 03:15:10;;;;;;;4.53;3.13;;;18.70;99.90;;;;;;5053561;28;20028;-72
2021/07/29 03:17:36;;;;;;;10.48;3.13;;;18.60;99.90;;;;;;5050280;28;20032;-71
2021/07/29 03:20:02;;;;;;;10.00;3.55;;;18.60;99.90;;;;;;5053091;28;20025;-72
2021/07/29 03:22:28;;;;;;;7.00;3.40;;;18.60;99.90;;;;;;5046826;28;20059;-72
2021/07/29 03:24:54;;;;;;;6.28;2.85;;;18.40;99.90;;;;;;5057323;28;20037;-72
2021/07/29 03:27:19;;;;;;;7.55;2.85;;;18.50;99.90;;;;;;5055225;28;20464;-72
2021/07/29 03:29:45;;;;;;;11.27;2.75;;;18.50;99.90;;;;;;5052070;28;20462;-70
2021/07/29 03:32:10;;;;;;;8.75;2.80;;;18.50;99.90;;;;;;5058288;28;20024;-70
2021/07/29 03:34:36;;;;;;;8.07;2.80;;;18.50;99.90;;;;;;5050962;28;20037;-69
2021/07/29 03:37:02;;;;;;;6.95;2.70;;;18.50;99.90;;;;;;5052752;28;20025;-71
2021/07/29 03:39:27;;;;;;;9.18;2.67;;;18.50;99.90;;;;;;5059129;28;20025;-72
2021/07/29 03:41:55;;;;;;;6.95;2.70;;;18.40;99.90;;;;;;5054601;28;20025;-72
2021/07/29 03:44:20;;;;;;;6.63;3.13;;;18.40;99.90;;;;;;5050311;28;20024;-72
2021/07/29 03:46:46;;;;;;;5.82;2.40;;;18.40;99.90;;;;;;5054557;28;20044;-73
2021/07/29 03:49:11;;;;;;;7.78;3.05;;;18.50;99.90;;;;;;5053489;28;20461;-71
2021/07/29 03:51:37;;;;;;;8.98;2.78;;;18.40;99.90;;;;;;5054427;28;20609;-72
2021/07/29 03:54:02;;;;;;;9.38;2.92;;;18.30;99.90;;;;;;5057416;28;20048;-72
2021/07/29 03:56:28;;;;;;;9.73;2.88;;;18.30;99.90;;;;;;5046244;28;20033;-72
2021/07/29 03:58:54;;;;;;;6.28;2.92;;;18.30;99.90;;;;;;5055794;28;20476;-72
2021/07/29 04:01:19;;;;;;;6.18;2.35;;;18.30;99.90;;;;;;5050394;28;20552;-72
2021/07/29 04:03:47;;;;;;;14.50;3.20;;;18.30;99.90;;;;;;5055727;28;20068;-72
2021/07/29 04:06:17;;;;;;;7.40;3.13;;;18.30;99.90;;;;;;5058318;28;20548;-72
2021/07/29 04:08:42;;;;;;;7.50;2.47;;;18.30;99.90;;;;;;5058448;28;20052;-72
2021/07/29 04:11:08;;;;;;;11.48;3.33;;;18.10;99.90;;;;;;5053417;28;20424;-71
2021/07/29 04:13:34;;;;;;;10.30;2.95;;;18.10;99.90;;;;;;5046324;28;20482;-72
2021/07/29 04:16:04;;;;;;;12.98;3.05;;;18.10;99.90;;;;;;5050834;28;20021;-71
2021/07/29 04:18:32;;;;;;;7.72;3.20;;;18.10;99.90;;;;;;5046177;28;20037;-72
2021/07/29 04:20:59;;;;;;;9.82;2.97;;;18.10;99.90;;;;;;5055247;28;20017;-70
2021/07/29 04:23:26;;;;;;;7.63;2.40;;;18.20;99.90;;;;;;5054710;28;20433;-72
2021/07/29 04:25:52;;;;;;;9.93;2.95;;;18.10;99.90;;;;;;5055204;28;20025;-71
2021/07/29 04:28:17;;;;;;;11.68;2.60;;;18.00;99.90;;;;;;5053886;28;20049;-70
2021/07/29 04:30:43;;;;;;;10.27;2.78;;;18.10;99.90;;;;;;5051371;28;20028;-71
2021/07/29 04:33:09;;;;;;;7.32;2.67;;;18.10;99.90;;;;;;5058470;28;20070;-71
2021/07/29 04:35:38;;;;;;;7.15;2.78;;;18.00;99.90;;;;;;5058911;28;20020;-71
2021/07/29 04:38:03;;;;;;;9.43;2.38;;;18.10;99.90;;;;;;5054889;28;20500;-71
2021/07/29 04:40:29;;;;;;;8.80;2.80;;;18.10;99.90;;;;;;5055875;28;20048;-71
2021/07/29 04:42:55;;;;;;;10.30;2.88;;;18.10;99.90;;;;;;5049563;28;20033;-70
2021/07/29 04:45:20;;;;;;;11.80;2.53;;;18.00;99.90;;;;;;5048634;28;20079;-71
2021/07/29 04:47:46;;;;;;;10.50;2.70;;;18.00;99.90;;;;;;5054221;28;20052;-71
2021/07/29 04:50:12;;;;;;;16.88;3.33;;;17.90;99.90;;;;;;5048726;28;20066;-70
2021/07/29 04:52:37;;;;;;;7.30;2.78;;;17.90;99.90;;;;;;5051001;28;20091;-71
2021/07/29 04:55:03;;;;;;;10.02;2.88;;;17.90;99.90;;;;;;5057835;28;20033;-71
2021/07/29 04:57:29;;;;;;;10.05;3.05;;;17.90;99.90;;;;;;5047238;28;20028;-72
2021/07/29 04:59:54;;;;;;;14.50;2.47;;;17.90;99.90;;;;;;5049483;28;20469;-69
2021/07/29 05:02:20;;;;;;;11.68;3.08;;;17.90;99.90;;;;;;5058891;28;20107;-72
2021/07/29 05:04:45;;;;;;;11.73;2.63;;;18.00;99.90;;;;;;5050397;28;20028;-70
2021/07/29 05:07:14;;;;;;;8.35;2.42;;;18.00;99.90;;;;;;5046249;28;20047;-71
2021/07/29 05:09:40;;;;;;;10.18;2.30;;;18.00;99.90;;;;;;5052214;28;20036;-71
2021/07/29 05:12:06;;;;;;;10.40;2.80;;;17.90;99.90;;;;;;5055185;28;20032;-69
2021/07/29 05:14:32;;;;;;;12.23;2.50;;;17.90;99.90;;;;;;5052616;28;20541;-69
2021/07/29 05:17:01;;;;;;;12.88;3.35;;;17.90;99.90;;;;;;5053523;28;20141;-69
2021/07/29 05:19:27;;;;;;;10.73;2.70;;;17.90;99.90;;;;;;5053191;28;20057;-70
2021/07/29 05:21:52;;;;;;;7.43;2.80;;;17.90;99.90;;;;;;5051268;28;20060;-72
2021/07/29 05:24:18;;;;;;;9.65;2.35;;;17.90;99.90;;;;;;5059511;28;20133;-72
2021/07/29 05:26:44;;;;;;;6.78;3.20;;;17.90;99.90;;;;;;5051212;28;20473;-71
2021/07/29 05:29:09;;;;;;;8.55;2.92;;;17.90;99.90;;;;;;5049190;28;20438;-70
2021/07/29 05:31:37;;;;;;;14.63;2.78;;;18.00;99.90;;;;;;5051998;28;20071;-70
2021/07/29 05:34:04;;;;;;;14.70;2.70;;;17.90;99.90;;;;;;5043123;28;20102;-71
2021/07/29 05:36:29;;;;;;;10.48;2.70;;;17.90;99.90;;;;;;5057975;28;20029;-69
2021/07/29 05:38:55;;;;;;;11.05;2.80;;;17.90;99.90;;;;;;5056574;28;20050;-72
2021/07/29 05:41:21;;;;;;;9.98;3.15;;;17.90;99.90;;;;;;5047493;28;20543;-71
2021/07/29 05:43:46;;;;;;;9.70;3.47;;;17.80;99.90;;;;;;5053799;28;20044;-72
2021/07/29 05:46:13;;;;;;;12.50;3.40;;;17.80;99.90;;;;;;5052248;28;20108;-71
2021/07/29 05:48:40;;;;;;;10.80;3.10;;;17.80;99.90;;;;;;5055083;28;20499;-69
2021/07/29 05:51:06;;;;;;;10.07;2.40;;;17.80;99.90;;;;;;5047120;28;20020;-72
2021/07/29 05:53:32;;;;;;;6.38;2.00;;;17.80;99.90;;;;;;5056722;28;20052;-70
2021/07/29 05:56:01;;;;;;;8.82;2.67;;;17.80;99.90;;;;;;5056325;28;20064;-68
2021/07/29 05:58:27;;;;;;;11.80;3.30;;;17.80;99.90;;;;;;5055660;28;20036;-72
2021/07/29 06:00:53;;;;;;;15.13;3.33;;;17.80;99.90;;;;;;5045214;28;20116;-72
2021/07/29 06:03:19;;;;;;;13.48;2.80;;;17.80;99.90;;;;;;5057948;28;20029;-71
2021/07/29 06:05:45;;;;;;;7.43;2.38;;;17.90;99.90;;;;;;5059757;28;20115;-72
2021/07/29 06:08:12;;;;;;;10.32;2.72;;;17.90;99.90;;;;;;5054650;28;20033;-70
2021/07/29 06:10:38;;;;;;;8.95;2.70;;;18.00;99.90;;;;;;5060440;28;20033;-72
2021/07/29 06:13:04;;;;;;;13.68;3.35;;;18.10;99.90;;;;;;5057828;28;20096;-73
2021/07/29 06:15:29;;;;;;;8.93;2.70;;;18.00;99.90;;;;;;5053983;28;20042;-72
2021/07/29 06:17:59;;;;;;;8.30;2.72;;;18.00;99.90;;;;;;5060792;28;20096;-72
2021/07/29 06:20:25;;;;;;;11.70;2.55;;;18.10;99.90;;;;;;5065403;28;20017;-72
2021/07/29 06:22:50;;;;;;;7.55;2.45;;;18.10;99.90;;;;;;5050434;28;20083;-72
2021/07/29 06:25:18;;;;;;;6.60;2.35;;;18.20;99.90;;;;;;5052108;28;20033;-71
2021/07/29 06:27:46;;;;;;;10.45;2.42;;;18.30;99.90;;;;;;5058289;28;20100;-72
2021/07/29 06:30:12;;;;;;;9.93;2.90;;;18.30;99.90;;;;;;5053365;28;20029;-71
2021/07/29 06:32:38;;;;;;;10.35;2.80;;;18.50;99.90;;;;;;5054294;28;20043;-69
2021/07/29 06:35:05;;;;;;;11.77;2.72;;;18.50;99.90;;;;;;5057228;28;20017;-72
2021/07/29 06:37:30;;;;;;;8.13;2.55;;;18.40;99.90;;;;;;5059918;28;20035;-72
2021/07/29 06:39:56;;;;;;;15.00;2.95;;;18.40;99.90;;;;;;5058253;28;20029;-71
2021/07/29 06:42:21;;;;;;;10.57;2.10;;;18.40;99.90;;;;;;5065035;28;20036;-71
2021/07/29 06:44:47;;;;;;;11.55;3.13;;;18.50;99.90;;;;;;5060945;28;20047;-71
2021/07/29 06:47:20;;;;;;;8.70;2.22;;;18.40;99.90;;;;;;5055538;28;20464;-71
2021/07/29 06:49:47;;;;;;;8.80;3.47;;;18.50;99.90;;;;;;5048442;28;20021;-72
2021/07/29 06:52:13;;;;;;;13.60;3.22;;;18.60;99.90;;;;;;5055461;28;20036;-70
2021/07/29 06:54:39;;;;;;;11.48;3.13;;;18.60;99.90;;;;;;5057742;28;20083;-71
2021/07/29 06:57:06;;;;;;;13.07;2.47;;;18.60;99.90;;;;;;5054643;28;20044;-70
2021/07/29 06:59:32;;;;;;;11.88;3.10;;;18.70;99.90;;;;;;5056563;28;20037;-71
2021/07/29 07:01:57;;;;;;;14.02;2.88;;;18.70;99.90;;;;;;5061056;28;20112;-72
2021/07/29 07:04:23;;;;;;;9.90;3.13;;;18.80;99.90;;;;;;5056450;28;20025;-68
2021/07/29 07:06:49;;;;;;;9.65;2.58;;;18.90;99.90;;;;;;5049225;28;20020;-69
2021/07/29 07:09:14;;;;;;;9.75;3.15;;;18.90;99.90;;;;;;5052883;28;20032;-70
2021/07/29 07:11:40;;;;;;;8.63;3.47;;;18.80;99.90;;;;;;5059881;28;20067;-71
2021/07/29 07:14:06;;;;;;;11.45;2.60;;;18.90;99.90;;;;;;5054331;28;20062;-69
2021/07/29 07:16:33;;;;;;;10.57;2.60;;;19.10;99.90;;;;;;5049038;28;20078;-67
2021/07/29 07:18:59;;;;;;;8.32;2.45;;;19.10;99.90;;;;;;5058906;28;20116;-67
2021/07/29 07:21:25;;;;;;;8.35;2.65;;;19.10;99.90;;;;;;5062652;28;20426;-69
2021/07/29 07:23:51;;;;;;;8.75;2.70;;;19.10;99.90;;;;;;5058801;28;20059;-72
2021/07/29 07:26:18;;;;;;;8.40;2.63;;;19.10;99.90;;;;;;5059876;28;20171;-72
2021/07/29 07:28:45;;;;;;;8.30;2.33;;;19.30;99.90;;;;;;5063429;28;20023;-71
2021/07/29 07:31:11;;;;;;;6.28;2.67;;;19.40;99.90;;;;;;5053820;28;20041;-71
2021/07/29 07:33:37;;;;;;;6.82;2.55;;;19.50;99.90;;;;;;5038601;28;20032;-68
2021/07/29 07:36:03;;;;;;;10.75;2.97;;;19.40;99.90;;;;;;5037342;28;20066;-69
2021/07/29 07:38:28;;;;;;;9.68;2.38;;;19.60;99.90;;;;;;5052421;28;20021;-71
2021/07/29 07:40:54;;;;;;;10.25;2.92;;;19.60;99.90;;;;;;5048682;28;20039;-67
2021/07/29 07:43:20;;;;;;;9.15;2.17;;;19.70;99.90;;;;;;5044462;28;20194;-68
2021/07/29 07:45:48;;;;;;;8.18;2.88;;;19.80;99.90;;;;;;5045971;28;20060;-68
2021/07/29 07:48:13;;;;;;;8.65;2.67;;;19.80;99.90;;;;;;5055136;28;20024;-68
2021/07/29 07:50:40;;;;;;;5.47;2.40;;;19.90;99.90;;;;;;5049622;28;21150;-70
2021/07/29 07:53:06;;;;;;;12.40;3.08;;;19.80;99.90;;;;;;5053557;28;20036;-68
2021/07/29 07:55:34;;;;;;;10.43;2.38;;;19.70;99.90;;;;;;5063554;28;20040;-71
2021/07/29 07:58:00;;;;;;;11.82;2.97;;;19.80;99.90;;;;;;5047766;28;20029;-68
2021/07/29 08:00:26;;;;;;;10.82;2.92;;;19.70;99.90;;;;;;5048413;28;20031;-68
2021/07/29 08:02:51;;;;;;;11.35;2.97;;;19.90;99.90;;;;;;5049138;28;20024;-70
2021/07/29 08:05:17;;;;;;;8.90;2.53;;;20.00;99.90;;;;;;5047369;28;20040;-69
2021/07/29 08:07:43;;;;;;;10.05;3.13;;;20.10;99.90;;;;;;5052521;28;20431;-67
2021/07/29 08:10:10;;;;;;;10.48;2.65;;;20.10;99.90;;;;;;5054700;28;20021;-67
2021/07/29 08:12:36;;;;;;;9.65;2.47;;;20.30;99.90;;;;;;5052905;28;20043;-68
2021/07/29 08:15:02;;;;;;;10.40;2.95;;;20.30;99.90;;;;;;5050882;28;20029;-71
2021/07/29 08:17:28;;;;;;;9.30;2.55;;;20.40;99.90;;;;;;5037941;28;20420;-68
2021/07/29 08:19:53;;;;;;;10.75;2.63;;;20.40;99.90;;;;;;5047035;28;20066;-70
2021/07/29 08:22:19;;;;;;;7.53;2.83;;;20.50;99.90;;;;;;5055227;28;20040;-67
2021/07/29 08:24:44;;;;;;;8.93;2.42;;;20.40;99.90;;;;;;5050029;28;20082;-68
2021/07/29 08:27:10;;;;;;;8.02;2.70;;;20.30;99.90;;;;;;5053542;28;20029;-68
2021/07/29 08:29:36;;;;;;;8.27;2.78;;;20.60;99.90;;;;;;5049287;28;20020;-68
2021/07/29 08:32:02;;;;;;;9.43;2.55;;;20.50;99.90;;;;;;5041651;28;20396;-68
2021/07/29 08:34:28;;;;;;;11.32;2.70;;;20.60;99.90;;;;;;5050382;28;20144;-68
2021/07/29 08:36:54;;;;;;;10.30;2.42;;;20.80;99.90;;;;;;5050632;28;20139;-69
2021/07/29 08:39:19;;;;;;;9.10;2.88;;;21.00;99.90;;;;;;5052568;28;20029;-68
2021/07/29 08:41:45;;;;;;;7.90;2.92;;;21.20;99.90;;;;;;5053688;28;20412;-68
2021/07/29 08:44:12;;;;;;;7.38;2.88;;;21.20;99.90;;;;;;5051906;28;20113;-68
2021/07/29 08:46:43;;;;;;;8.20;2.70;;;21.20;99.90;;;;;;5052718;28;20094;-68
2021/07/29 08:49:09;;;;;;;6.90;2.83;;;21.20;99.90;;;;;;5045663;28;20013;-68
2021/07/29 08:51:34;;;;;;;6.55;2.50;;;21.20;99.90;;;;;;5043236;28;21595;-68
2021/07/29 08:54:07;;;;;;;10.48;3.13;;;21.20;99.90;;;;;;5046433;28;20067;-70
2021/07/29 08:56:33;;;;;;;12.50;2.90;;;21.30;99.90;;;;;;5052823;28;20033;-71
2021/07/29 08:58:59;;;;;;;7.53;2.33;;;21.30;99.90;;;;;;5042994;28;20074;-68
2021/07/29 09:01:41;;;;;;;8.75;2.80;;;21.30;99.90;;;;;;5060891;28;20090;-68
2021/07/29 09:04:14;;;;;;;8.25;2.38;;;21.50;99.90;;;;;;5051859;28;20027;-69
2021/07/29 09:07:01;;;;;;;11.38;2.60;;;21.60;99.90;;;;;;5055578;28;20051;-68
2021/07/29 09:09:42;;;;;;;10.00;2.72;;;21.40;99.90;;;;;;5047304;28;20021;-70
2021/07/29 09:12:16;;;;;;;10.80;2.60;;;21.50;99.90;;;;;;5046150;28;20465;-69
2021/07/29 09:14:41;;;;;;;8.75;2.55;;;21.40;99.90;;;;;;5047927;28;20127;-68
2021/07/29 09:17:08;;;;;;;8.98;2.42;;;21.40;99.90;;;;;;5045418;28;20548;-68
2021/07/29 09:19:38;;;;;;;6.43;2.30;;;21.40;99.90;;;;;;5054793;28;20024;-68
2021/07/29 09:22:06;;;;;;;10.35;2.53;;;21.30;99.90;;;;;;5050688;28;20025;-68
2021/07/29 09:24:32;;;;;;;7.75;3.20;;;21.30;99.90;;;;;;5054296;28;20519;-71
2021/07/29 09:26:59;;;;;;;10.65;2.58;;;21.60;99.90;;;;;;5045283;28;20044;-69
2021/07/29 09:29:28;;;;;;;8.18;2.30;;;21.60;99.90;;;;;;5047934;28;20036;-68
2021/07/29 09:32:11;;;;;;;7.43;2.33;;;21.80;99.90;;;;;;5048151;28;20056;-70
2021/07/29 09:34:55;;;;;;;7.35;2.60;;;21.90;99.90;;;;;;5050415;28;20068;-71
2021/07/29 09:37:21;;;;;;;10.05;4.00;;;22.10;99.90;;;;;;5053473;28;20028;-67
2021/07/29 09:39:58;;;;;;;11.93;2.95;;;22.20;99.90;;;;;;5052800;28;20024;-68
2021/07/29 09:42:24;;;;;;;6.93;3.10;;;22.50;99.90;;;;;;5053743;28;20036;-67
2021/07/29 09:44:53;;;;;;;10.05;2.70;;;22.60;99.90;;;;;;5051910;28;20033;-67
2021/07/29 09:47:22;;;;;;;11.05;2.97;;;22.60;99.90;;;;;;5046824;28;20021;-69
2021/07/29 09:49:49;;;;;;;6.32;2.63;;;22.50;99.90;;;;;;5050939;28;20402;-69
2021/07/29 09:52:15;;;;;;;10.27;2.60;;;22.50;99.90;;;;;;5051962;28;20068;-70
2021/07/29 09:54:44;;;;;;;7.78;2.28;;;22.70;99.90;;;;;;5051439;28;20060;-69
2021/07/29 09:57:10;;;;;;;10.90;2.33;;;22.70;99.90;;;;;;5052168;28;20012;-70
2021/07/29 09:59:37;;;;;;;6.38;2.30;;;22.80;99.90;;;;;;5049399;28;20028;-68
2021/07/29 10:02:04;;;;;;;7.13;2.28;;;22.60;99.90;;;;;;5045629;28;20048;-69
2021/07/29 10:04:49;;;;;;;10.55;2.75;;;22.90;99.90;;;;;;5051206;28;20472;-69
2021/07/29 10:07:26;;;;;;;5.88;2.40;;;23.10;99.90;;;;;;5052272;28;20460;-71
2021/07/29 10:09:53;;;;;;;7.82;2.47;;;23.10;99.90;;;;;;5050092;28;20488;-69
2021/07/29 10:12:26;;;;;;;8.57;2.33;;;23.20;99.90;;;;;;5055403;28;20041;-69
2021/07/29 10:14:55;;;;;;;8.80;2.63;;;23.50;99.90;;;;;;5053743;28;20065;-68
2021/07/29 10:17:36;;;;;;;8.57;2.33;;;23.60;99.90;;;;;;5054253;28;20017;-69
2021/07/29 10:20:10;;;;;;;7.25;2.13;;;23.70;98.60;;;;;;5047964;28;20035;-69
2021/07/29 10:22:36;;;;;;;7.50;2.65;;;23.90;98.70;;;;;;5054442;28;20029;-70
2021/07/29 10:25:02;;;;;;;6.78;2.45;;;23.90;99.30;;;;;;5060195;28;20499;-71
2021/07/29 10:27:27;;;;;;;4.65;1.90;;;23.90;97.90;;;;;;5057274;28;20024;-71
2021/07/29 10:29:53;;;;;;;8.20;2.30;;;23.90;97.60;;;;;;5054224;28;20039;-70
2021/07/29 10:32:48;;;;;;;6.03;2.33;;;24.10;97.70;;;;;;5050057;28;20217;-70
2021/07/29 10:35:29;;;;;;;7.80;2.03;;;23.60;97.70;;;;;;5053834;28;20094;-69
2021/07/29 10:37:55;;;;;;;6.93;2.40;;;23.40;98.30;;;;;;5053940;28;20025;-69
2021/07/29 10:40:33;;;;;;;8.90;2.35;;;23.20;97.80;;;;;;5053182;28;20049;-69
2021/07/29 10:43:24;;;;;;;8.80;2.63;;;23.20;98.40;;;;;;5050016;28;20037;-70
2021/07/29 10:45:54;;;;;;;9.10;2.33;;;23.30;98.80;;;;;;5053770;28;20028;-70
2021/07/29 10:49:14;;;;;;;7.85;2.38;;;23.70;99.20;;;;;;5043807;28;20071;-70
2021/07/29 10:52:02;;;;;;;4.75;2.40;;;24.00;98.40;;;;;;5044421;28;20048;-69
2021/07/29 10:54:28;;;;;;;8.82;2.33;;;24.10;98.70;;;;;;5052743;28;20037;-69
2021/07/29 10:56:54;;;;;;;5.90;2.10;;;23.80;98.50;;;;;;5050672;28;20120;-70
2021/07/29 10:59:19;;;;;;;4.68;1.95;;;24.00;97.40;;;;;;5049154;28;20108;-69
2021/07/29 11:01:48;;;;;;;5.32;2.55;;;23.90;97.70;;;;;;5043523;28;20079;-70
2021/07/29 11:04:14;;;;;;;10.20;2.22;;;24.10;98.20;;;;;;5053177;28;20042;-68
2021/07/29 11:06:43;;;;;;;3.15;1.50;;;24.20;97.70;;;;;;5054331;28;20028;-68
2021/07/29 11:09:19;;;;;;;5.85;2.42;;;24.20;97.10;;;;;;5052792;28;20389;-69
2021/07/29 11:11:46;;;;;;;13.70;2.47;;;24.40;99.30;;;;;;5052266;28;20029;-69
2021/07/29 11:14:14;;;;;;;8.18;2.22;;;24.80;98.00;;;;;;5052267;28;20052;-69
2021/07/29 11:16:40;;;;;;;9.02;2.10;;;24.80;97.70;;;;;;5054471;28;20032;-70
2021/07/29 11:19:07;;;;;;;8.38;2.63;;;25.00;96.50;;;;;;5053505;28;20036;-68
2021/07/29 11:21:33;;;;;;;8.13;2.42;;;25.10;97.30;;;;;;5052055;28;20029;-68
2021/07/29 11:24:00;;;;;;;5.90;2.03;;;24.80;95.80;;;;;;5058236;28;20033;-68
2021/07/29 11:26:26;;;;;;;6.05;2.35;;;24.50;96.60;;;;;;5054944;28;20041;-68
2021/07/29 11:29:06;;;;;;;9.93;2.15;;;24.70;97.20;;;;;;5058885;28;20036;-68
2021/07/29 11:31:33;;;;;;;6.53;2.33;;;25.00;96.30;;;;;;5052562;28;20095;-69
2021/07/29 11:33:59;;;;;;;6.55;1.75;;;25.10;96.60;;;;;;5055818;28;20438;-69
2021/07/29 11:36:25;;;;;;;3.90;1.73;;;25.10;95.60;;;;;;5056114;28;20104;-69
2021/07/29 11:39:06;;;;;;;5.10;1.70;;;25.20;95.60;;;;;;5054552;28;20024;-68
2021/07/29 11:41:56;;;;;;;8.10;1.75;;;25.50;96.10;;;;;;5051609;28;20532;-70
2021/07/29 11:44:35;;;;;;;6.10;2.33;;;25.70;95.40;;;;;;5047045;28;20037;-70
2021/07/29 11:47:02;;;;;;;8.75;2.20;;;25.80;94.30;;;;;;5050831;28;20037;-70
2021/07/29 11:49:28;;;;;;;7.78;2.10;;;25.60;94.60;;;;;;5050241;28;20013;-68
2021/07/29 11:52:06;;;;;;;4.60;2.00;;;25.40;95.40;;;;;;5051884;28;20055;-70
2021/07/29 11:54:32;;;;;;;8.73;2.05;;;25.50;95.90;;;;;;5049019;28;20375;-69
2021/07/29 11:56:58;;;;;;;5.00;1.70;;;25.70;95.10;;;;;;5050412;28;20034;-69
2021/07/29 11:59:25;;;;;;;4.93;2.03;;;25.60;95.80;;;;;;4985634;28;1660901;-70
2021/07/29 12:01:52;;;;;;;4.18;1.88;;;25.60;95.30;;;;;;5052004;28;20541;-69
2021/07/29 12:04:18;;;;;;;7.88;2.13;;;25.80;94.80;;;;;;5050378;28;20057;-70
2021/07/29 12:06:44;;;;;;;4.32;1.90;;;25.80;94.20;;;;;;5050140;28;20024;-71
2021/07/29 12:09:12;;;;;;;7.03;1.90;;;25.70;94.90;;;;;;5042529;28;20440;-71
2021/07/29 12:11:38;;;;;;;7.38;2.85;;;25.40;95.40;;;;;;5045859;28;20032;-71
2021/07/29 12:14:04;;;;;;;6.25;1.80;;;25.20;95.20;;;;;;5047530;28;20397;-71
2021/07/29 12:16:47;;;;;;;4.38;1.95;;;24.80;94.60;;;;;;5051485;28;20017;-71
2021/07/29 12:19:14;;;;;;;5.07;2.03;;;24.70;95.20;;;;;;5050158;28;20034;-71
2021/07/29 12:21:39;;;;;;;4.43;1.80;;;24.60;95.20;;;;;;5047838;28;20044;-69
2021/07/29 12:24:05;;;;;;;9.88;1.83;;;24.90;96.00;;;;;;5052186;28;20449;-68
2021/07/29 12:26:31;;;;;;;6.90;1.92;;;25.10;95.50;;;;;;5049572;28;20037;-69
2021/07/29 12:28:57;;;;;;;4.80;2.10;;;24.90;93.50;;;;;;5052845;28;20031;-68
2021/07/29 12:31:25;;;;;;;7.18;2.20;;;24.90;94.50;;;;;;5045543;28;20117;-68
2021/07/29 12:34:05;;;;;;;3.63;1.67;;;24.90;95.20;;;;;;5050914;28;20473;-68
2021/07/29 12:36:44;;;;;;;5.57;1.85;;;24.90;94.90;;;;;;5045745;28;20031;-68
2021/07/29 12:39:11;;;;;;;6.30;1.80;;;25.30;95.30;;;;;;5052828;28;20036;-68
2021/07/29 12:41:39;;;;;;;5.18;1.90;;;25.30;94.30;;;;;;5054657;28;20021;-69
2021/07/29 12:44:11;;;;;;;5.00;1.75;;;25.30;94.50;;;;;;5048841;28;20031;-69